KDEN/DEN METAR and TAF weather

Enter ICAO airport designator
Station Type Date Time Source
KDEN METAR 2022/12/04 03:53 UTC NOAA

KDEN 040353Z 15009KT 10SM BKN220 01/M09 A3017 RMK AO2 SLP234 T00061089


Station Type Date Time Source
KDEN Decoded METAR 2022/12/04 03:53 UTC NOAA

DENVER INTERNATIONAL AIRPORT, CO, United States (KDEN) 39-52N 104-40W 1640M
Dec 03, 2022 - 10:53 PM EST / 2022.12.04 0353 UTC
Wind: from the SSE (150 degrees) at 10 MPH (9 KT):0
Visibility: 10 mile(s):0
Sky conditions: mostly cloudy
Temperature: 33.1 F (0.6 C)
Windchill: 24 F (-4 C):1
Dew Point: 16.0 F (-8.9 C)
Relative Humidity: 48%
Pressure (altimeter): 30.17 in. Hg (1021 hPa)
ob: KDEN 040353Z 15009KT 10SM BKN220 01/M09 A3017 RMK AO2 SLP234 T00061089
cycle: 4

Station Type Date Time Source
KDEN TAF 2022/12/04 02:24 UTC NOAA

TAF
AMD KDEN 040221Z 0402/0506 20008KT P6SM FEW090 FEW140 BKN220
FM041600 VRB06KT P6SM FEW140 BKN220

Example: see airport list